createdAt,value
2018-04-22T00:01:30.619Z,97.10
2018-04-22T00:03:58.050Z,97.10
2018-04-22T00:06:25.486Z,97.40
2018-04-22T00:08:52.927Z,97.50
2018-04-22T00:11:21.118Z,97.50
2018-04-22T00:13:48.558Z,97.50
2018-04-22T00:16:16.764Z,98.10
2018-04-22T00:18:44.975Z,98.20
2018-04-22T00:21:12.415Z,98.20
2018-04-22T00:23:39.863Z,98.20
2018-04-22T00:26:07.301Z,98.20
2018-04-22T00:28:34.734Z,98.20
2018-04-22T00:31:02.172Z,98.30
2018-04-22T00:33:29.611Z,97.90
2018-04-22T00:35:57.047Z,98.00
2018-04-22T00:38:24.494Z,98.30
2018-04-22T00:40:51.919Z,98.60
2018-04-22T00:43:19.372Z,98.60
2018-04-22T00:45:47.584Z,98.70
2018-04-22T00:48:15.031Z,98.60
2018-04-22T00:50:42.487Z,98.70
2018-04-22T00:53:09.944Z,99.10
2018-04-22T00:55:37.383Z,99.10
2018-04-22T00:58:04.813Z,99.40
2018-04-22T01:00:33.031Z,99.80
2018-04-22T01:03:00.472Z,99.70
2018-04-22T01:05:27.909Z,99.70
2018-04-22T01:07:56.117Z,99.90
2018-04-22T01:10:23.570Z,99.90
2018-04-22T01:12:51.028Z,99.50
2018-04-22T01:15:18.458Z,99.80
2018-04-22T01:17:45.890Z,99.80
2018-04-22T01:20:13.337Z,98.90
2018-04-22T01:25:10.699Z,98.80
2018-04-22T01:27:38.147Z,98.80
2018-04-22T01:30:05.603Z,98.60
2018-04-22T01:32:33.051Z,99.20
2018-04-22T01:35:00.530Z,99.40
2018-04-22T01:37:27.971Z,99.40
2018-04-22T01:39:55.427Z,99.40
2018-04-22T01:42:22.875Z,99.50
2018-04-22T01:44:50.333Z,99.60
2018-04-22T01:47:17.770Z,99.70
2018-04-22T01:49:45.209Z,99.90
2018-04-22T01:52:12.683Z,99.90
2018-04-22T01:54:40.139Z,99.90
2018-04-22T01:57:07.569Z,99.90
2018-04-22T01:59:35.777Z,99.90
2018-04-22T02:02:03.225Z,99.90
2018-04-22T02:04:30.646Z,99.90
2018-04-22T02:06:59.379Z,99.90
2018-04-22T02:09:26.828Z,99.90
2018-04-22T02:11:54.282Z,99.90
2018-04-22T02:14:21.710Z,99.90
2018-04-22T02:16:49.156Z,99.90
2018-04-22T02:19:17.372Z,99.90
2018-04-22T02:21:44.819Z,99.90
2018-04-22T02:24:12.246Z,99.90
2018-04-22T02:26:40.463Z,99.90
2018-04-22T02:29:07.911Z,99.90
2018-04-22T02:31:36.176Z,99.90
2018-04-22T02:34:03.609Z,99.90
2018-04-22T02:36:31.042Z,99.90
2018-04-22T02:38:58.553Z,99.90
2018-04-22T02:41:25.989Z,99.90
2018-04-22T02:43:53.430Z,99.90
2018-04-22T02:46:21.639Z,99.90
2018-04-22T02:48:49.083Z,99.90
2018-04-22T02:51:16.523Z,99.90
2018-04-22T02:53:44.731Z,99.90
2018-04-22T02:56:12.179Z,99.90
2018-04-22T02:58:39.623Z,99.90
2018-04-22T03:01:07.069Z,99.90
2018-04-22T03:03:34.497Z,99.90
2018-04-22T03:06:01.931Z,99.90
2018-04-22T03:08:29.370Z,99.90
2018-04-22T03:10:56.818Z,99.90
2018-04-22T03:13:24.258Z,99.90
2018-04-22T03:15:51.694Z,99.90
2018-04-22T03:18:19.911Z,99.90
2018-04-22T03:20:47.354Z,99.90
2018-04-22T03:23:14.801Z,99.90
2018-04-22T03:25:42.230Z,99.90
2018-04-22T03:28:10.454Z,99.90
2018-04-22T03:30:37.899Z,99.90
2018-04-22T03:33:05.348Z,99.90
2018-04-22T03:35:32.789Z,99.90
2018-04-22T03:38:00.228Z,99.90
2018-04-22T03:40:28.063Z,99.90
2018-04-22T03:42:55.507Z,99.90
2018-04-22T03:45:22.955Z,99.90
2018-04-22T03:47:50.406Z,99.90
2018-04-22T03:50:17.850Z,99.90
2018-04-22T03:52:45.321Z,99.90
2018-04-22T03:55:12.747Z,99.90
2018-04-22T03:57:40.190Z,99.90
2018-04-22T04:00:08.401Z,99.90
2018-04-22T04:02:35.876Z,99.90
2018-04-22T04:05:03.279Z,99.90
2018-04-22T04:07:31.493Z,99.90
2018-04-22T04:10:00.435Z,99.90
2018-04-22T04:12:28.691Z,99.90
2018-04-22T04:14:56.128Z,99.90
2018-04-22T04:17:23.570Z,99.90
2018-04-22T04:20:02.862Z,99.90
2018-04-22T04:22:41.864Z,99.90
2018-04-22T04:25:39.848Z,99.90
2018-04-22T04:28:07.355Z,99.90
2018-04-22T04:30:34.810Z,99.90
2018-04-22T04:33:02.266Z,99.90
2018-04-22T04:35:29.702Z,99.90
2018-04-22T04:37:57.141Z,99.90
2018-04-22T04:40:25.354Z,99.90
2018-04-22T04:42:52.801Z,99.90
2018-04-22T04:45:20.236Z,99.90
2018-04-22T04:47:48.438Z,99.90
2018-04-22T04:50:15.879Z,99.90
2018-04-22T04:52:43.309Z,99.90
2018-04-22T04:55:11.517Z,99.90
2018-04-22T04:57:38.952Z,99.90
2018-04-22T05:00:07.165Z,99.90
2018-04-22T05:02:34.603Z,99.90
2018-04-22T05:05:02.046Z,99.90
2018-04-22T05:07:30.252Z,99.90
2018-04-22T05:09:57.695Z,99.90
2018-04-22T05:12:25.133Z,99.90
2018-04-22T05:14:52.571Z,99.90
2018-04-22T05:17:20.775Z,99.90
2018-04-22T05:19:48.207Z,99.90
2018-04-22T05:22:16.410Z,99.90
2018-04-22T05:24:43.851Z,99.90
2018-04-22T05:27:11.291Z,99.90
2018-04-22T05:29:39.501Z,99.90
2018-04-22T05:32:06.933Z,99.90
2018-04-22T05:34:34.370Z,99.90
2018-04-22T05:37:15.305Z,99.90
2018-04-22T05:39:42.742Z,99.90
2018-04-22T05:42:10.236Z,99.90
2018-04-22T05:44:37.672Z,96.50
2018-04-22T05:47:05.107Z,96.50
2018-04-22T05:49:32.553Z,93.50
2018-04-22T05:52:12.659Z,90.70
2018-04-22T05:54:40.107Z,87.40
2018-04-22T05:57:07.979Z,83.90
2018-04-22T05:59:35.410Z,83.90
2018-04-22T06:02:02.847Z,78.90
2018-04-22T06:04:30.309Z,79.40
2018-04-22T06:06:57.747Z,77.50
2018-04-22T06:09:25.213Z,78.00
2018-04-22T06:11:52.636Z,76.60
2018-04-22T06:14:20.830Z,74.90
2018-04-22T06:16:48.439Z,74.90
2018-04-22T06:19:16.435Z,73.90
2018-04-22T06:21:43.874Z,72.40
2018-04-22T06:24:12.262Z,73.20
2018-04-22T06:26:39.710Z,73.50
2018-04-22T06:29:07.155Z,72.40
2018-04-22T06:31:34.676Z,69.80
2018-04-22T06:34:02.883Z,71.60
2018-04-22T06:36:30.323Z,71.50
2018-04-22T06:38:57.775Z,72.80
2018-04-22T06:41:25.223Z,72.60
2018-04-22T06:43:52.674Z,73.00
2018-04-22T06:46:20.114Z,74.80
2018-04-22T06:48:47.546Z,74.70
2018-04-22T06:51:15.769Z,74.10
2018-04-22T06:53:43.975Z,74.60
2018-04-22T06:56:11.407Z,75.40
2018-04-22T06:58:38.850Z,76.10
2018-04-22T07:01:06.326Z,77.60
2018-04-22T07:03:33.769Z,76.70
2018-04-22T07:06:01.215Z,77.00
2018-04-22T07:08:28.685Z,74.90
2018-04-22T07:10:56.194Z,75.20
2018-04-22T07:13:24.416Z,71.50
2018-04-22T07:15:51.874Z,71.50
2018-04-22T07:18:19.319Z,69.80
2018-04-22T07:20:46.767Z,68.90
2018-04-22T07:23:14.212Z,68.80
2018-04-22T07:25:41.650Z,67.60
2018-04-22T07:28:09.857Z,67.10
2018-04-22T07:30:37.295Z,67.00
2018-04-22T07:33:04.736Z,67.10
2018-04-22T07:35:32.938Z,62.10
2018-04-22T07:38:00.395Z,62.00
2018-04-22T07:40:27.820Z,63.20
2018-04-22T07:42:56.018Z,60.80
2018-04-22T07:45:23.450Z,60.80
2018-04-22T07:47:51.682Z,61.20
2018-04-22T07:50:19.109Z,61.10
2018-04-22T07:52:46.560Z,58.60
2018-04-22T07:55:14.003Z,58.30
2018-04-22T07:57:41.451Z,58.80
2018-04-22T08:00:09.657Z,59.20
2018-04-22T08:02:37.098Z,59.20
2018-04-22T08:05:04.542Z,59.50
2018-04-22T08:07:32.748Z,60.30
2018-04-22T08:10:00.188Z,60.40
2018-04-22T08:12:27.634Z,58.50
2018-04-22T08:14:55.078Z,59.00
2018-04-22T08:17:23.291Z,58.00
2018-04-22T08:19:50.730Z,57.90
2018-04-22T08:22:18.192Z,58.60
2018-04-22T08:24:45.688Z,54.80
2018-04-22T08:27:13.122Z,53.80
2018-04-22T08:29:40.575Z,55.80
2018-04-22T08:32:08.010Z,56.60
2018-04-22T08:34:35.457Z,54.50
2018-04-22T08:37:02.893Z,52.70
2018-04-22T08:39:31.096Z,54.40
2018-04-22T08:41:58.531Z,54.10
2018-04-22T08:44:26.739Z,51.00
2018-04-22T08:46:54.176Z,51.00
2018-04-22T08:49:21.650Z,50.30
2018-04-22T08:51:49.066Z,50.30
2018-04-22T08:54:17.279Z,50.20
2018-04-22T08:56:44.802Z,50.20
2018-04-22T08:59:12.148Z,50.60
2018-04-22T09:01:39.578Z,50.40
2018-04-22T09:04:07.023Z,49.20
2018-04-22T09:06:34.454Z,48.90
2018-04-22T09:09:01.895Z,48.80
2018-04-22T09:11:29.323Z,47.80
2018-04-22T09:13:56.766Z,46.00
2018-04-22T09:16:24.205Z,46.40
2018-04-22T09:18:51.637Z,45.40
2018-04-22T09:21:19.083Z,46.70
2018-04-22T09:23:46.517Z,45.60
2018-04-22T09:26:14.728Z,44.60
2018-04-22T09:28:42.182Z,44.50
2018-04-22T09:31:09.625Z,44.40
2018-04-22T09:33:37.052Z,44.30
2018-04-22T09:36:05.622Z,44.30
2018-04-22T09:38:33.059Z,43.70
2018-04-22T09:43:29.295Z,40.00
2018-04-22T09:45:56.749Z,41.60
2018-04-22T09:48:24.185Z,40.50
2018-04-22T09:50:51.611Z,40.30
2018-04-22T09:53:19.822Z,40.40
2018-04-22T09:55:47.336Z,40.30
2018-04-22T09:58:15.545Z,40.30
2018-04-22T10:00:42.992Z,39.90
2018-04-22T10:03:10.422Z,39.50
2018-04-22T10:05:44.235Z,39.20
2018-04-22T10:08:12.442Z,39.30
2018-04-22T10:10:42.772Z,37.50
2018-04-22T10:13:10.195Z,37.40
2018-04-22T10:15:37.633Z,38.60
2018-04-22T10:18:05.056Z,38.40
2018-04-22T10:20:32.502Z,40.40
2018-04-22T10:22:59.939Z,36.60
2018-04-22T10:25:27.383Z,37.90
2018-04-22T10:27:54.814Z,38.50
2018-04-22T10:30:23.029Z,39.30
2018-04-22T10:32:51.151Z,39.30
2018-04-22T10:35:19.034Z,40.10
2018-04-22T10:37:47.239Z,39.70
2018-04-22T10:40:14.698Z,38.60
2018-04-22T10:42:42.138Z,38.30
2018-04-22T10:45:09.564Z,38.40
2018-04-22T10:47:37.776Z,36.60
2018-04-22T10:50:05.194Z,36.60
2018-04-22T10:52:33.395Z,37.50
2018-04-22T10:55:00.822Z,37.50
2018-04-22T10:57:28.651Z,37.90
2018-04-22T10:59:56.134Z,38.40
2018-04-22T11:02:23.531Z,37.80
2018-04-22T11:04:50.961Z,37.40
2018-04-22T11:07:19.179Z,37.00
2018-04-22T11:09:46.602Z,37.20
2018-04-22T11:12:14.043Z,37.30
2018-04-22T11:14:41.478Z,36.30
2018-04-22T11:17:08.919Z,36.30
2018-04-22T11:19:36.350Z,37.70
2018-04-22T11:22:03.807Z,37.90
2018-04-22T11:24:31.233Z,36.90
2018-04-22T11:26:59.441Z,36.00
2018-04-22T11:29:27.629Z,35.90
2018-04-22T11:31:55.177Z,35.90
2018-04-22T11:34:22.610Z,36.90
2018-04-22T11:36:50.056Z,37.30
2018-04-22T11:39:17.482Z,37.80
2018-04-22T11:41:44.923Z,36.40
2018-04-22T11:44:12.359Z,35.10
2018-04-22T11:46:39.804Z,33.20
2018-04-22T11:49:08.007Z,33.80
2018-04-22T11:51:35.450Z,33.10
2018-04-22T11:54:02.899Z,33.90
2018-04-22T11:56:30.359Z,36.90
2018-04-22T11:58:57.787Z,35.50
2018-04-22T12:01:25.222Z,34.50
2018-04-22T12:03:53.433Z,33.90
2018-04-22T12:06:20.855Z,33.90
2018-04-22T12:08:48.290Z,35.40
2018-04-22T12:11:15.710Z,34.40
2018-04-22T12:13:43.155Z,33.20
2018-04-22T12:16:10.583Z,34.10
2018-04-22T12:18:38.786Z,34.60
2018-04-22T12:21:06.228Z,34.60
2018-04-22T12:23:33.675Z,34.70
2018-04-22T12:26:01.483Z,34.10
2018-04-22T12:28:28.918Z,33.30
2018-04-22T12:30:56.351Z,33.80
2018-04-22T12:33:23.831Z,34.40
2018-04-22T12:35:51.253Z,34.50
2018-04-22T12:38:19.463Z,33.50
2018-04-22T12:40:46.897Z,33.50
2018-04-22T12:43:14.337Z,34.10
2018-04-22T12:45:42.578Z,33.70
2018-04-22T12:48:10.028Z,33.80
2018-04-22T12:50:37.459Z,35.80
2018-04-22T12:53:04.899Z,35.70
2018-04-22T12:55:32.330Z,34.50
2018-04-22T12:58:00.530Z,35.20
2018-04-22T13:00:27.963Z,35.20
2018-04-22T13:02:55.405Z,35.10
2018-04-22T13:05:22.839Z,34.90
2018-04-22T13:07:50.509Z,33.80
2018-04-22T13:10:17.987Z,34.30
2018-04-22T13:12:45.430Z,34.70
2018-04-22T13:15:12.871Z,35.40
2018-04-22T13:17:40.317Z,35.20
2018-04-22T13:20:07.746Z,36.20
2018-04-22T13:22:35.170Z,36.20
2018-04-22T13:25:03.384Z,37.10
2018-04-22T13:27:30.808Z,37.00
2018-04-22T13:29:59.010Z,35.90
2018-04-22T13:32:26.442Z,35.90
2018-04-22T13:34:53.875Z,35.10
2018-04-22T13:37:21.306Z,37.20
2018-04-22T13:39:48.755Z,34.30
2018-04-22T13:42:16.189Z,34.40
2018-04-22T13:44:43.614Z,35.10
2018-04-22T13:47:11.052Z,35.60
2018-04-22T13:49:38.487Z,35.40
2018-04-22T13:52:05.926Z,36.30
2018-04-22T13:54:33.402Z,35.00
2018-04-22T13:57:00.821Z,35.40
2018-04-22T13:59:28.256Z,36.90
2018-04-22T14:01:56.455Z,37.20
2018-04-22T14:04:23.898Z,37.20
2018-04-22T14:06:51.331Z,37.00
2018-04-22T14:09:19.539Z,36.80
2018-04-22T14:11:46.962Z,36.80
2018-04-22T14:14:15.172Z,36.10
2018-04-22T14:16:42.603Z,36.10
2018-04-22T14:19:10.037Z,35.50
2018-04-22T14:21:37.470Z,36.60
2018-04-22T14:24:04.901Z,36.20
2018-04-22T14:26:32.334Z,37.10
2018-04-22T14:28:59.764Z,38.20
2018-04-22T14:31:27.958Z,37.30
2018-04-22T14:33:55.391Z,36.70
2018-04-22T14:36:23.600Z,37.70
2018-04-22T14:38:51.029Z,37.70
2018-04-22T14:41:19.230Z,38.00
2018-04-22T14:43:58.489Z,38.00
2018-04-22T14:46:25.925Z,38.20
2018-04-22T14:49:05.258Z,37.40
2018-04-22T14:51:32.709Z,37.90
2018-04-22T14:54:00.138Z,37.70
2018-04-22T14:56:28.348Z,37.80
2018-04-22T14:58:55.789Z,37.70
2018-04-22T15:01:23.229Z,37.10
2018-04-22T15:03:51.438Z,36.90
2018-04-22T15:06:18.886Z,36.90
2018-04-22T15:08:46.331Z,37.30
2018-04-22T15:11:13.768Z,37.50
2018-04-22T15:13:42.339Z,37.90
2018-04-22T15:16:09.769Z,38.40
2018-04-22T15:18:37.204Z,37.10
2018-04-22T15:21:04.651Z,38.00
2018-04-22T15:23:32.074Z,36.40
2018-04-22T15:26:00.289Z,37.80
2018-04-22T15:28:27.723Z,37.90
2018-04-22T15:30:55.159Z,37.50
2018-04-22T15:33:23.567Z,36.00
2018-04-22T15:35:50.990Z,35.50
2018-04-22T15:38:19.186Z,36.50
2018-04-22T15:40:46.613Z,36.50
2018-04-22T15:43:14.822Z,36.70
2018-04-22T15:45:43.029Z,36.70
2018-04-22T15:48:10.479Z,37.20
2018-04-22T15:50:37.899Z,36.30
2018-04-22T15:53:05.346Z,36.20
2018-04-22T15:55:33.540Z,37.60
2018-04-22T15:58:00.973Z,37.50
2018-04-22T16:00:28.415Z,37.50
2018-04-22T16:02:55.874Z,36.50
2018-04-22T16:05:24.080Z,36.90
2018-04-22T16:07:51.532Z,36.80
2018-04-22T16:10:19.727Z,36.80
2018-04-22T16:12:47.927Z,36.60
2018-04-22T16:15:15.364Z,36.80
2018-04-22T16:17:42.807Z,37.10
2018-04-22T16:20:10.271Z,36.70
2018-04-22T16:22:37.710Z,38.30
2018-04-22T16:25:05.142Z,37.80
2018-04-22T16:27:33.346Z,39.00
2018-04-22T16:30:00.774Z,39.10
2018-04-22T16:32:28.215Z,39.10
2018-04-22T16:34:56.419Z,38.20
2018-04-22T16:37:23.859Z,38.10
2018-04-22T16:39:52.062Z,38.70
2018-04-22T16:42:19.504Z,37.80
2018-04-22T16:44:46.930Z,38.20
2018-04-22T16:47:15.241Z,38.10
2018-04-22T16:49:42.714Z,37.80
2018-04-22T16:52:10.159Z,38.40
2018-04-22T16:54:37.586Z,38.30
2018-04-22T16:57:05.018Z,38.80
2018-04-22T16:59:32.454Z,39.00
2018-04-22T17:01:59.983Z,39.40
2018-04-22T17:04:27.423Z,39.50
2018-04-22T17:06:54.862Z,41.50
2018-04-22T17:09:23.070Z,46.00
2018-04-22T17:11:51.240Z,45.90
2018-04-22T17:14:18.663Z,46.00
2018-04-22T17:16:46.868Z,48.30
2018-04-22T17:19:14.295Z,48.30
2018-04-22T17:21:42.506Z,48.50
2018-04-22T17:24:10.012Z,48.60
2018-04-22T17:26:37.421Z,49.40
2018-04-22T17:29:04.869Z,49.20
2018-04-22T17:31:32.291Z,49.70
2018-04-22T17:34:00.501Z,50.60
2018-04-22T17:36:27.945Z,50.60
2018-04-22T17:38:55.374Z,51.80
2018-04-22T17:41:23.586Z,52.40
2018-04-22T17:43:51.715Z,53.10
2018-04-22T17:46:19.932Z,53.90
2018-04-22T17:48:47.359Z,53.60
2018-04-22T17:51:15.942Z,54.40
2018-04-22T17:53:44.154Z,56.40
2018-04-22T17:56:12.354Z,55.80
2018-04-22T17:58:39.778Z,56.00
2018-04-22T18:01:07.220Z,54.40
2018-04-22T18:03:34.655Z,54.90
2018-04-22T18:06:02.877Z,54.00
2018-04-22T18:08:30.299Z,54.00
2018-04-22T18:10:57.741Z,52.80
2018-04-22T18:13:25.953Z,57.50
2018-04-22T18:15:53.396Z,57.50
2018-04-22T18:18:20.826Z,58.30
2018-04-22T18:20:49.035Z,59.40
2018-04-22T18:23:16.482Z,59.30
2018-04-22T18:25:43.914Z,59.40
2018-04-22T18:28:12.115Z,61.20
2018-04-22T18:30:39.543Z,61.20
2018-04-22T18:33:07.785Z,61.70
2018-04-22T18:35:35.182Z,61.50
2018-04-22T18:38:02.626Z,63.30
2018-04-22T18:40:30.820Z,66.00
2018-04-22T18:42:58.254Z,66.00
2018-04-22T18:45:26.462Z,66.60
2018-04-22T18:47:53.895Z,66.30
2018-04-22T18:50:22.104Z,66.20
2018-04-22T18:52:49.559Z,66.10
2018-04-22T18:55:17.015Z,67.20
2018-04-22T18:57:44.431Z,64.80
2018-04-22T19:00:11.894Z,65.40
2018-04-22T19:02:39.341Z,66.00
2018-04-22T19:05:07.562Z,65.80
2018-04-22T19:07:34.996Z,65.00
2018-04-22T19:10:02.423Z,66.60
2018-04-22T19:12:30.622Z,67.40
2018-04-22T19:14:58.051Z,67.50
2018-04-22T19:17:25.484Z,66.90
2018-04-22T19:19:52.919Z,69.00
2018-04-22T19:22:20.371Z,71.20
2018-04-22T19:24:47.814Z,72.30
2018-04-22T19:27:15.270Z,72.90
2018-04-22T19:29:42.702Z,74.30
2018-04-22T19:32:10.910Z,75.30
2018-04-22T19:34:38.399Z,75.30
2018-04-22T19:37:06.060Z,76.40
2018-04-22T19:39:33.502Z,77.30
2018-04-22T19:42:00.969Z,78.20
2018-04-22T19:44:28.427Z,78.10
2018-04-22T19:46:55.882Z,78.10
2018-04-22T19:49:23.641Z,79.10
2018-04-22T19:51:51.132Z,80.60
2018-04-22T19:54:18.632Z,81.70
2018-04-22T19:56:46.135Z,82.70
2018-04-22T19:59:13.629Z,83.50
2018-04-22T20:01:41.318Z,82.30
2018-04-22T20:04:08.815Z,82.20
2018-04-22T20:06:36.353Z,83.50
2018-04-22T20:09:03.909Z,82.90
2018-04-22T20:11:31.442Z,82.40
2018-04-22T20:13:58.975Z,82.90
2018-04-22T20:16:26.486Z,82.70
2018-04-22T20:18:54.039Z,82.20
2018-04-22T20:21:21.480Z,83.50
2018-04-22T20:23:48.951Z,84.30
2018-04-22T20:26:16.419Z,85.60
2018-04-22T20:28:43.911Z,85.90
2018-04-22T20:31:11.382Z,83.70
2018-04-22T20:33:38.886Z,84.50
2018-04-22T20:36:06.324Z,82.80
2018-04-22T20:38:33.815Z,84.40
2018-04-22T20:41:01.298Z,84.30
2018-04-22T20:43:28.751Z,84.80
2018-04-22T20:45:56.356Z,84.50
2018-04-22T20:48:24.985Z,84.50
2018-04-22T20:50:53.262Z,84.10
2018-04-22T20:53:20.819Z,84.10
2018-04-22T20:55:48.346Z,82.90
2018-04-22T20:58:15.988Z,82.10
2018-04-22T21:00:43.654Z,82.80
2018-04-22T21:03:11.231Z,81.00
2018-04-22T21:05:38.781Z,80.00
2018-04-22T21:08:06.247Z,80.60
2018-04-22T21:10:33.728Z,80.30
2018-04-22T21:13:02.000Z,80.70
2018-04-22T21:15:29.544Z,80.80
2018-04-22T21:17:57.023Z,80.60
2018-04-22T21:20:25.275Z,79.70
2018-04-22T21:22:52.754Z,79.80
2018-04-22T21:25:21.007Z,79.00
2018-04-22T21:27:48.520Z,79.10
2018-04-22T21:30:16.035Z,79.30
2018-04-22T21:32:44.299Z,81.40
2018-04-22T21:35:12.246Z,80.90
2018-04-22T21:37:40.187Z,83.60
2018-04-22T21:40:08.551Z,83.80
2018-04-22T21:42:35.992Z,83.80
2018-04-22T21:45:03.482Z,84.00
2018-04-22T21:47:31.358Z,79.80
2018-04-22T21:49:58.901Z,81.00
2018-04-22T21:52:26.404Z,81.60
2018-04-22T21:54:54.683Z,79.60
2018-04-22T21:57:22.204Z,79.70
2018-04-22T21:59:49.767Z,80.10
2018-04-22T22:02:18.026Z,81.90
2018-04-22T22:04:45.538Z,82.60
2018-04-22T22:07:13.815Z,83.20
2018-04-22T22:09:41.334Z,83.80
2018-04-22T22:12:08.808Z,82.10
2018-04-22T22:14:36.288Z,82.30
2018-04-22T22:17:04.586Z,79.60
2018-04-22T22:19:32.104Z,79.80
2018-04-22T22:21:59.647Z,79.40
2018-04-22T22:24:27.147Z,79.90
2018-04-22T22:26:55.423Z,80.00
2018-04-22T22:29:22.906Z,80.00
2018-04-22T22:31:50.407Z,80.40
2018-04-22T22:34:17.941Z,81.20
2018-04-22T22:36:45.440Z,81.80
2018-04-22T22:39:12.955Z,81.90
2018-04-22T22:41:40.442Z,82.10
2018-04-22T22:44:07.874Z,82.90
2018-04-22T22:46:35.322Z,82.00
2018-04-22T22:49:02.803Z,81.90
2018-04-22T22:51:30.322Z,82.70
2018-04-22T22:53:57.788Z,82.90
2018-04-22T22:56:25.279Z,82.40
2018-04-22T22:58:52.780Z,84.00
2018-04-22T23:01:20.220Z,85.00
2018-04-22T23:03:48.426Z,86.10
2018-04-22T23:06:15.885Z,86.10
2018-04-22T23:08:43.400Z,86.50
2018-04-22T23:11:10.842Z,86.90
2018-04-22T23:13:38.335Z,87.00
2018-04-22T23:16:05.831Z,87.40
2018-04-22T23:18:33.350Z,88.20
2018-04-22T23:21:00.881Z,87.80
2018-04-22T23:23:28.362Z,87.70
2018-04-22T23:25:55.916Z,86.70
2018-04-22T23:28:24.167Z,86.00
2018-04-22T23:30:51.634Z,86.10
2018-04-22T23:33:19.883Z,85.80
2018-04-22T23:35:47.420Z,85.90
2018-04-22T23:38:14.943Z,86.60
2018-04-22T23:40:42.430Z,86.30
2018-04-22T23:43:09.955Z,87.70
2018-04-22T23:45:38.229Z,88.30
2018-04-22T23:48:06.526Z,89.30
2018-04-22T23:50:34.038Z,89.50
2018-04-22T23:53:01.484Z,89.80
2018-04-22T23:55:28.992Z,89.10
2018-04-22T23:57:56.534Z,88.70
